Time;durP1;ratioP1;P1;durP2;ratioP2;P2;SDS_P1;SDS_P2;PMS_P1;PMS_P2;Temp;Humidity;BMP_temperature;BMP_pressure;BME280_temperature;BME280_humidity;BME280_pressure;Samples;Min_cycle;Max_cycle;Signal;HPM_P1;HPM_P2
2021/08/17 00:01:31;;;;;;;5.97;2.93;;;14.20;99.90;;;;;;4972397;28;20455;-45
2021/08/17 00:03:58;;;;;;;8.70;3.03;;;14.10;99.90;;;;;;4971059;28;20439;-45
2021/08/17 00:06:24;;;;;;;4.90;2.90;;;14.00;99.90;;;;;;4970733;28;20448;-43
2021/08/17 00:08:52;;;;;;;4.60;2.97;;;14.10;99.90;;;;;;4971328;28;20655;-45
2021/08/17 00:11:22;;;;;;;8.20;2.87;;;14.10;99.90;;;;;;4968711;28;20470;-46
2021/08/17 00:13:49;;;;;;;10.83;2.80;;;14.10;99.90;;;;;;4971259;28;20474;-42
2021/08/17 00:16:16;;;;;;;6.93;2.73;;;14.00;99.90;;;;;;4964077;28;20502;-41
2021/08/17 00:18:43;;;;;;;11.97;3.53;;;14.00;99.90;;;;;;4962432;29;20913;-46
2021/08/17 00:21:10;;;;;;;8.37;3.50;;;14.00;99.90;;;;;;4961486;29;20448;-41
2021/08/17 00:23:37;;;;;;;8.87;2.80;;;14.10;99.90;;;;;;4961433;29;20443;-42
2021/08/17 00:26:05;;;;;;;5.40;2.60;;;14.00;99.90;;;;;;4962228;29;20487;-43
2021/08/17 00:28:31;;;;;;;6.30;3.67;;;14.00;99.90;;;;;;4961794;29;20554;-45
2021/08/17 00:30:59;;;;;;;5.97;2.83;;;14.00;99.90;;;;;;4962063;29;20511;-42
2021/08/17 00:33:26;;;;;;;7.37;2.73;;;14.10;99.90;;;;;;4961305;29;20456;-45
2021/08/17 00:35:53;;;;;;;5.97;2.50;;;14.00;99.90;;;;;;4962186;29;20462;-42
2021/08/17 00:38:20;;;;;;;9.00;3.10;;;14.10;99.90;;;;;;4962264;29;20499;-50
2021/08/17 00:40:46;;;;;;;6.43;2.53;;;14.10;99.90;;;;;;4961935;29;20451;-45
2021/08/17 00:43:14;;;;;;;6.63;3.07;;;14.10;99.90;;;;;;4961535;29;20510;-42
2021/08/17 00:45:41;;;;;;;8.17;2.97;;;14.10;99.90;;;;;;4962017;29;20447;-48
2021/08/17 00:48:08;;;;;;;4.63;2.87;;;14.10;99.90;;;;;;4961995;29;20516;-44
2021/08/17 00:50:35;;;;;;;3.40;2.37;;;14.10;99.90;;;;;;4961453;29;20455;-44
2021/08/17 00:53:03;;;;;;;7.50;3.17;;;14.10;99.90;;;;;;4961140;29;20507;-47
2021/08/17 00:55:33;;;;;;;6.80;3.03;;;14.20;99.90;;;;;;4961795;29;20527;-44
2021/08/17 00:58:00;;;;;;;8.07;3.20;;;14.10;99.90;;;;;;4961724;29;20444;-48
2021/08/17 01:00:29;;;;;;;9.03;3.17;;;14.20;99.90;;;;;;4960810;29;20907;-46
2021/08/17 01:02:56;;;;;;;6.43;2.77;;;14.20;99.90;;;;;;4960919;29;20462;-45
2021/08/17 01:05:27;;;;;;;6.50;4.40;;;14.20;99.90;;;;;;4961996;29;20451;-43
2021/08/17 01:07:54;;;;;;;6.20;3.27;;;14.20;99.90;;;;;;4962448;29;20475;-45
2021/08/17 01:10:21;;;;;;;6.07;3.13;;;14.20;99.90;;;;;;4962305;29;20483;-42
2021/08/17 01:12:48;;;;;;;6.50;3.40;;;14.20;99.90;;;;;;4962345;29;20506;-43
2021/08/17 01:15:15;;;;;;;5.27;4.33;;;14.20;99.90;;;;;;4961540;29;20447;-43
2021/08/17 01:17:44;;;;;;;5.03;2.97;;;14.20;99.90;;;;;;4961827;29;20532;-45
2021/08/17 01:20:14;;;;;;;2.90;2.60;;;14.20;99.90;;;;;;4960015;28;20475;-47
2021/08/17 01:22:41;;;;;;;10.50;2.80;;;14.20;99.90;;;;;;4961702;29;20444;-46
2021/08/17 01:25:09;;;;;;;9.17;3.33;;;14.20;99.90;;;;;;4960630;29;20460;-43
2021/08/17 01:27:38;;;;;;;5.60;2.77;;;14.20;99.90;;;;;;4960778;29;20983;-44
2021/08/17 01:30:09;;;;;;;8.10;2.80;;;14.20;99.90;;;;;;4960337;29;20483;-44
2021/08/17 01:32:36;;;;;;;5.90;2.90;;;14.30;99.90;;;;;;4960458;29;20481;-43
2021/08/17 01:35:03;;;;;;;9.57;3.70;;;14.20;99.90;;;;;;4960546;29;20444;-42
2021/08/17 01:37:30;;;;;;;6.73;2.70;;;14.30;99.90;;;;;;4960946;29;20443;-43
2021/08/17 01:40:01;;;;;;;6.30;3.00;;;14.30;99.90;;;;;;4961167;29;20752;-42
2021/08/17 01:42:28;;;;;;;7.43;3.73;;;14.30;99.90;;;;;;4961600;29;20468;-42
2021/08/17 01:44:57;;;;;;;4.00;2.93;;;14.20;99.90;;;;;;4961365;29;20455;-42
2021/08/17 01:47:24;;;;;;;3.60;2.77;;;14.20;99.90;;;;;;4961549;29;20483;-47
2021/08/17 01:49:50;;;;;;;9.40;2.83;;;14.20;99.90;;;;;;4960424;29;20451;-45
2021/08/17 01:52:17;;;;;;;7.33;3.20;;;14.30;99.90;;;;;;4960000;29;20459;-47
2021/08/17 01:54:44;;;;;;;5.93;2.77;;;14.20;99.90;;;;;;4960619;29;20452;-43
2021/08/17 01:57:10;;;;;;;7.27;2.70;;;14.20;99.90;;;;;;4960469;29;20440;-45
2021/08/17 01:59:37;;;;;;;6.70;3.57;;;14.20;99.90;;;;;;4960400;29;20479;-42
2021/08/17 02:02:08;;;;;;;7.60;2.87;;;14.20;99.90;;;;;;4960995;29;20821;-47
2021/08/17 02:04:35;;;;;;;4.17;2.63;;;14.20;99.90;;;;;;4961221;29;20452;-46
2021/08/17 02:07:02;;;;;;;7.40;3.50;;;14.20;99.90;;;;;;4961391;29;20443;-41
2021/08/17 02:09:29;;;;;;;6.83;2.90;;;14.20;99.90;;;;;;4961472;29;20455;-41
2021/08/17 02:11:55;;;;;;;5.40;2.80;;;14.20;99.90;;;;;;4973743;28;20452;-41
2021/08/17 02:16:58;;;;;;;8.00;3.10;;;14.20;99.90;;;;;;5337986;23;20479;-45
2021/08/17 02:19:26;;;;;;;10.13;3.43;;;14.20;99.90;;;;;;5056649;28;20454;-41
2021/08/17 02:21:52;;;;;;;6.93;2.80;;;14.10;99.90;;;;;;5056616;28;20420;-42
2021/08/17 02:24:22;;;;;;;4.70;2.23;;;14.20;99.90;;;;;;5056491;28;20428;-42
2021/08/17 02:26:48;;;;;;;4.70;2.60;;;14.20;99.90;;;;;;5056545;28;20439;-42
2021/08/17 02:29:18;;;;;;;4.47;2.27;;;14.20;99.90;;;;;;5056789;28;20483;-42
2021/08/17 02:31:44;;;;;;;5.23;2.20;;;14.30;99.90;;;;;;5058121;28;20466;-47
2021/08/17 02:34:11;;;;;;;2.30;2.00;;;14.30;99.90;;;;;;5059733;28;20462;-44
2021/08/17 02:36:41;;;;;;;4.07;2.10;;;14.30;99.90;;;;;;5060246;28;20470;-41
2021/08/17 02:39:10;;;;;;;4.97;2.87;;;14.30;99.90;;;;;;5059886;28;20428;-43
2021/08/17 02:41:36;;;;;;;10.67;2.97;;;14.30;99.90;;;;;;5059430;28;20471;-43
2021/08/17 02:44:03;;;;;;;9.37;1.90;;;14.30;99.90;;;;;;5059618;28;20444;-46
2021/08/17 02:46:30;;;;;;;4.43;2.00;;;14.30;99.90;;;;;;5059486;28;20440;-46
2021/08/17 02:48:57;;;;;;;6.40;2.40;;;14.30;99.90;;;;;;5060192;28;20460;-46
2021/08/17 02:51:23;;;;;;;10.53;2.47;;;14.30;99.90;;;;;;5060095;28;20440;-45
2021/08/17 02:53:51;;;;;;;2.77;1.93;;;14.30;99.90;;;;;;5059875;28;20455;-42
2021/08/17 02:56:18;;;;;;;7.40;2.50;;;14.30;99.90;;;;;;5060498;28;20428;-42
2021/08/17 02:58:47;;;;;;;3.40;2.30;;;14.30;99.90;;;;;;5059965;28;20440;-45
2021/08/17 03:01:16;;;;;;;6.63;2.70;;;14.30;99.90;;;;;;5059714;28;20475;-47
2021/08/17 03:03:44;;;;;;;4.20;2.60;;;14.30;99.90;;;;;;5059737;28;20412;-48
2021/08/17 03:06:11;;;;;;;8.13;3.23;;;14.30;99.90;;;;;;5059654;28;20470;-45
2021/08/17 03:08:40;;;;;;;5.17;2.50;;;14.30;99.90;;;;;;5059460;28;20585;-46
2021/08/17 03:11:07;;;;;;;5.20;3.40;;;14.30;99.90;;;;;;5059387;28;20475;-48
2021/08/17 03:13:34;;;;;;;5.53;2.10;;;14.40;99.90;;;;;;5059595;28;20425;-45
2021/08/17 03:16:01;;;;;;;5.10;2.20;;;14.40;99.90;;;;;;5059457;28;20456;-45
2021/08/17 03:18:28;;;;;;;5.27;2.50;;;14.40;99.90;;;;;;5059465;28;20444;-44
2021/08/17 03:20:57;;;;;;;5.47;2.57;;;14.50;99.90;;;;;;5059670;28;20455;-43
2021/08/17 03:23:26;;;;;;;4.23;2.13;;;14.50;99.90;;;;;;5059298;28;20433;-43
2021/08/17 03:25:53;;;;;;;4.37;2.50;;;14.50;99.90;;;;;;5059902;28;20420;-47
2021/08/17 03:28:23;;;;;;;6.17;2.53;;;14.50;99.90;;;;;;5058785;28;20484;-46
2021/08/17 03:30:50;;;;;;;5.67;3.30;;;14.50;99.90;;;;;;5059259;28;20452;-43
2021/08/17 03:33:17;;;;;;;5.60;2.80;;;14.50;99.90;;;;;;5059524;28;20420;-46
2021/08/17 03:35:44;;;;;;;6.77;2.50;;;14.50;99.90;;;;;;5059233;28;20424;-46
2021/08/17 03:38:11;;;;;;;10.70;4.90;;;14.50;99.90;;;;;;5059232;28;20440;-46
2021/08/17 03:40:38;;;;;;;6.57;3.10;;;14.50;99.90;;;;;;5059073;28;20428;-47
2021/08/17 03:43:04;;;;;;;9.70;2.97;;;14.50;99.90;;;;;;5057824;28;20448;-48
2021/08/17 03:45:44;;;;;;;5.40;3.17;;;14.60;99.90;;;;;;5059158;28;20451;-44
2021/08/17 03:48:10;;;;;;;4.43;2.17;;;14.60;99.90;;;;;;5058792;28;20484;-45
2021/08/17 03:50:37;;;;;;;2.93;2.43;;;14.60;99.90;;;;;;5059196;28;20444;-42
2021/08/17 03:53:04;;;;;;;5.03;3.00;;;14.60;99.90;;;;;;5059507;28;20425;-43
2021/08/17 03:55:34;;;;;;;8.67;2.80;;;14.60;99.90;;;;;;5059460;28;20479;-42
2021/08/17 03:58:00;;;;;;;4.90;2.33;;;14.70;99.90;;;;;;5058220;28;20448;-42
2021/08/17 04:00:29;;;;;;;7.97;2.70;;;14.70;99.90;;;;;;5058786;28;20454;-42
2021/08/17 04:02:57;;;;;;;5.83;3.03;;;14.70;99.90;;;;;;5059612;28;20480;-45
2021/08/17 04:05:24;;;;;;;4.60;2.70;;;14.80;99.90;;;;;;5059810;28;20421;-45
2021/08/17 04:07:51;;;;;;;5.40;3.40;;;14.80;99.90;;;;;;5059330;28;20470;-43
2021/08/17 04:10:18;;;;;;;8.13;2.70;;;14.80;99.90;;;;;;5044118;28;20440;-48
2021/08/17 04:12:45;;;;;;;3.30;2.17;;;14.90;99.90;;;;;;5035163;28;20464;-48
2021/08/17 04:15:12;;;;;;;11.03;3.23;;;14.90;99.90;;;;;;5035048;28;20440;-46
2021/08/17 04:17:39;;;;;;;5.50;2.63;;;14.90;99.90;;;;;;5036030;28;20476;-46
2021/08/17 04:20:09;;;;;;;5.60;2.50;;;15.00;99.90;;;;;;5037675;28;20460;-45
2021/08/17 04:22:37;;;;;;;3.33;3.03;;;15.00;99.90;;;;;;5037284;28;20454;-42
2021/08/17 04:25:05;;;;;;;4.80;2.30;;;15.10;99.90;;;;;;5038203;28;20444;-45
2021/08/17 04:27:32;;;;;;;6.07;3.07;;;15.10;99.90;;;;;;5039787;28;20925;-43
2021/08/17 04:29:59;;;;;;;5.00;2.27;;;15.00;99.90;;;;;;5044425;28;20479;-42
2021/08/17 04:32:25;;;;;;;12.17;3.17;;;15.10;99.90;;;;;;5048673;28;20755;-45
2021/08/17 04:34:52;;;;;;;7.23;2.27;;;15.00;99.90;;;;;;5039721;28;20502;-42
2021/08/17 04:37:20;;;;;;;4.40;2.73;;;15.30;99.90;;;;;;5038651;28;20496;-44
2021/08/17 04:39:46;;;;;;;3.37;2.87;;;15.40;99.90;;;;;;5039248;28;20762;-47
2021/08/17 04:42:13;;;;;;;7.97;2.63;;;15.40;99.90;;;;;;5037444;28;20444;-43
2021/08/17 04:44:40;;;;;;;13.23;2.90;;;15.30;99.90;;;;;;5036817;28;20464;-43
2021/08/17 04:47:06;;;;;;;8.00;3.23;;;15.30;99.90;;;;;;5036423;28;20526;-42
2021/08/17 04:49:33;;;;;;;6.60;3.90;;;15.30;99.90;;;;;;5036504;28;20511;-42
2021/08/17 04:52:00;;;;;;;9.40;2.90;;;15.30;99.90;;;;;;5036632;28;20594;-43
2021/08/17 04:54:28;;;;;;;5.60;1.90;;;15.30;99.90;;;;;;5036703;28;20567;-42
2021/08/17 04:56:55;;;;;;;8.97;2.70;;;15.30;99.90;;;;;;5037223;28;20452;-43
2021/08/17 04:59:21;;;;;;;3.87;2.47;;;15.30;99.90;;;;;;5035859;28;20514;-42
2021/08/17 05:01:49;;;;;;;12.77;3.20;;;15.30;99.90;;;;;;5021386;28;20519;-42
2021/08/17 05:04:16;;;;;;;6.87;2.70;;;15.30;99.90;;;;;;5017324;28;20485;-46
2021/08/17 05:06:42;;;;;;;3.87;2.93;;;15.30;99.90;;;;;;5023235;28;20825;-42
2021/08/17 05:09:09;;;;;;;6.33;2.57;;;15.40;99.90;;;;;;5035818;28;20476;-43
2021/08/17 05:11:37;;;;;;;7.47;2.43;;;15.40;99.90;;;;;;5035701;28;20842;-46
2021/08/17 05:14:06;;;;;;;7.00;2.90;;;15.40;99.90;;;;;;5035745;28;20518;-42
2021/08/17 05:16:33;;;;;;;4.40;2.73;;;15.40;99.90;;;;;;5035601;28;20574;-43
2021/08/17 05:19:00;;;;;;;9.13;2.57;;;15.40;99.90;;;;;;5035319;28;20445;-42
2021/08/17 05:21:26;;;;;;;4.13;2.53;;;15.40;99.90;;;;;;5035214;28;20452;-45
2021/08/17 05:23:56;;;;;;;6.10;2.30;;;15.40;99.90;;;;;;5035290;28;20909;-46
2021/08/17 05:26:22;;;;;;;10.27;3.00;;;15.50;99.90;;;;;;5035373;28;20545;-42
2021/08/17 05:28:50;;;;;;;6.33;2.77;;;15.50;99.90;;;;;;5036009;28;20829;-42
2021/08/17 05:31:17;;;;;;;7.63;3.23;;;15.50;99.90;;;;;;5035680;28;20440;-43
2021/08/17 05:33:43;;;;;;;7.93;3.83;;;15.50;99.90;;;;;;5035226;28;20448;-44
2021/08/17 05:36:10;;;;;;;8.43;4.13;;;15.50;99.90;;;;;;5035969;28;20538;-42
2021/08/17 05:38:37;;;;;;;5.53;2.90;;;15.50;99.90;;;;;;5036097;28;20452;-42
2021/08/17 05:41:04;;;;;;;4.97;3.23;;;15.50;99.90;;;;;;5033152;28;20507;-45
2021/08/17 05:43:30;;;;;;;8.43;2.80;;;15.50;99.90;;;;;;5028983;28;20980;-44
2021/08/17 05:46:02;;;;;;;6.13;2.47;;;15.40;99.90;;;;;;5029524;28;20441;-45
2021/08/17 05:48:29;;;;;;;5.50;2.33;;;15.50;99.90;;;;;;5024719;28;20489;-45
2021/08/17 05:50:56;;;;;;;7.53;3.77;;;15.50;99.90;;;;;;5024846;28;20456;-46
2021/08/17 05:53:23;;;;;;;5.33;3.10;;;15.50;99.90;;;;;;5022091;28;20448;-47
2021/08/17 05:55:49;;;;;;;5.17;3.13;;;15.40;99.90;;;;;;5027442;28;20499;-45
2021/08/17 05:58:16;;;;;;;9.93;4.17;;;15.30;99.90;;;;;;5024580;28;20499;-45
2021/08/17 06:00:42;;;;;;;8.53;4.07;;;15.30;99.90;;;;;;5018434;28;20456;-47
2021/08/17 06:03:11;;;;;;;7.83;3.90;;;15.30;99.90;;;;;;5015893;28;20492;-45
2021/08/17 06:05:37;;;;;;;9.10;3.10;;;15.20;99.90;;;;;;5016282;28;20926;-41
2021/08/17 06:08:04;;;;;;;12.87;3.63;;;15.20;99.90;;;;;;5019881;28;20507;-43
2021/08/17 06:10:31;;;;;;;6.37;3.83;;;15.20;99.90;;;;;;5020563;28;21062;-43
2021/08/17 06:12:58;;;;;;;7.40;3.83;;;15.20;99.90;;;;;;5020037;28;20445;-42
2021/08/17 06:15:25;;;;;;;6.10;3.20;;;15.10;99.90;;;;;;5019805;28;20472;-43
2021/08/17 06:17:51;;;;;;;9.43;3.83;;;15.20;99.90;;;;;;5020152;28;20488;-41
2021/08/17 06:20:19;;;;;;;6.47;2.80;;;15.20;99.90;;;;;;5025490;28;20515;-41
2021/08/17 06:22:46;;;;;;;13.57;4.50;;;15.20;99.90;;;;;;5028938;28;20442;-42
2021/08/17 06:25:13;;;;;;;6.53;4.10;;;15.20;99.90;;;;;;5029183;28;20527;-43
2021/08/17 06:27:39;;;;;;;4.07;3.27;;;15.10;99.90;;;;;;5031937;28;20452;-43
2021/08/17 06:30:08;;;;;;;10.30;4.03;;;15.10;99.90;;;;;;5033251;28;20884;-50
2021/08/17 06:32:34;;;;;;;5.43;3.90;;;15.10;99.90;;;;;;5031714;28;20456;-49
2021/08/17 06:35:05;;;;;;;8.67;3.83;;;15.10;99.90;;;;;;5031108;28;20519;-45
2021/08/17 06:45:19;;;;;;;12.43;4.80;;;15.20;99.90;;;;;;5075411;22;20495;-44
2021/08/17 06:47:47;;;;;;;7.40;4.63;;;15.20;99.90;;;;;;5020647;28;20516;-47
2021/08/17 06:50:13;;;;;;;4.83;4.10;;;15.30;99.90;;;;;;5019310;28;20477;-44
2021/08/17 06:52:40;;;;;;;12.70;3.37;;;15.40;99.90;;;;;;5019101;28;20436;-44
2021/08/17 06:55:08;;;;;;;5.03;3.63;;;15.40;99.90;;;;;;5020038;28;20445;-44
2021/08/17 06:57:35;;;;;;;14.83;3.87;;;15.50;99.90;;;;;;5030601;28;20448;-43
2021/08/17 07:00:01;;;;;;;5.23;4.07;;;15.50;99.90;;;;;;5038774;28;20983;-43
2021/08/17 07:02:31;;;;;;;8.80;3.97;;;15.50;99.90;;;;;;5038610;28;20443;-50
2021/08/17 07:04:58;;;;;;;10.30;3.50;;;15.50;99.90;;;;;;5038713;28;20516;-51
2021/08/17 07:07:25;;;;;;;7.60;3.57;;;15.60;99.90;;;;;;5038556;28;20454;-42
2021/08/17 07:09:51;;;;;;;9.97;4.07;;;15.50;99.90;;;;;;5038634;28;20950;-43
2021/08/17 07:12:18;;;;;;;11.70;3.13;;;15.60;99.90;;;;;;5038971;28;20792;-45
2021/08/17 07:14:45;;;;;;;9.73;3.20;;;15.60;99.90;;;;;;5038688;28;20459;-43
2021/08/17 07:17:12;;;;;;;12.40;3.53;;;15.60;99.90;;;;;;5038350;28;20444;-44
2021/08/17 07:19:39;;;;;;;11.40;3.80;;;15.70;99.90;;;;;;5038975;28;20448;-42
2021/08/17 07:22:06;;;;;;;12.63;3.53;;;15.80;99.90;;;;;;5038773;28;20452;-44
2021/08/17 07:24:33;;;;;;;8.97;3.20;;;15.90;99.90;;;;;;5038626;28;20444;-44
2021/08/17 07:27:00;;;;;;;7.07;2.80;;;16.00;99.90;;;;;;5038206;28;20449;-43
2021/08/17 07:29:27;;;;;;;10.07;3.07;;;16.00;99.90;;;;;;5038060;28;20864;-45
2021/08/17 07:31:54;;;;;;;7.13;3.33;;;16.20;99.90;;;;;;5037753;28;20436;-43
2021/08/17 07:34:20;;;;;;;4.67;3.30;;;16.20;99.90;;;;;;5037748;28;20468;-44
2021/08/17 07:36:48;;;;;;;9.30;3.23;;;16.30;99.90;;;;;;5037699;28;20432;-42
2021/08/17 07:39:16;;;;;;;9.27;3.90;;;16.30;99.90;;;;;;5038344;28;20920;-48
2021/08/17 07:41:43;;;;;;;17.87;8.33;;;16.40;99.90;;;;;;5037652;28;20444;-42
2021/08/17 07:44:10;;;;;;;6.60;3.37;;;16.50;99.90;;;;;;5037703;28;20567;-44
2021/08/17 07:46:36;;;;;;;9.57;4.07;;;16.60;99.90;;;;;;5037778;28;20444;-50
2021/08/17 07:49:03;;;;;;;7.70;4.13;;;16.60;99.90;;;;;;5037441;28;20475;-47
2021/08/17 07:51:31;;;;;;;8.53;3.80;;;16.60;99.90;;;;;;5038190;28;20464;-44
2021/08/17 07:53:59;;;;;;;10.90;3.27;;;16.60;99.90;;;;;;5037252;28;20463;-43
2021/08/17 07:56:26;;;;;;;8.70;3.57;;;16.50;99.90;;;;;;5037417;28;20463;-50
2021/08/17 07:58:52;;;;;;;5.07;3.37;;;16.50;99.90;;;;;;5037398;28;20452;-48
2021/08/17 08:01:19;;;;;;;4.70;3.53;;;16.40;99.90;;;;;;5037515;28;20830;-48
2021/08/17 08:03:46;;;;;;;12.23;3.90;;;16.40;99.90;;;;;;5037321;28;20452;-44
2021/08/17 08:06:14;;;;;;;7.83;3.50;;;16.40;99.90;;;;;;5037330;28;20441;-45
2021/08/17 08:08:41;;;;;;;11.00;3.50;;;16.40;99.90;;;;;;5037050;28;20532;-42
2021/08/17 08:11:10;;;;;;;5.80;3.40;;;16.40;99.90;;;;;;5037777;28;20474;-47
2021/08/17 08:13:36;;;;;;;5.00;2.23;;;16.40;99.90;;;;;;5037339;28;20779;-44
2021/08/17 08:16:03;;;;;;;4.47;2.60;;;16.50;99.90;;;;;;5037637;28;20454;-42
2021/08/17 08:18:30;;;;;;;4.53;2.93;;;16.50;99.90;;;;;;5037472;28;20537;-46
2021/08/17 08:20:57;;;;;;;4.77;2.30;;;16.40;99.90;;;;;;5037135;28;20777;-47
2021/08/17 08:23:23;;;;;;;4.43;3.13;;;16.30;99.90;;;;;;5037169;28;20448;-41
2021/08/17 08:25:50;;;;;;;8.70;2.50;;;16.30;99.90;;;;;;5036951;28;20468;-42
2021/08/17 08:28:18;;;;;;;6.80;2.27;;;16.30;99.90;;;;;;5037364;28;20474;-43
2021/08/17 08:30:45;;;;;;;9.30;2.40;;;16.30;99.90;;;;;;5037221;28;20506;-42
2021/08/17 08:33:12;;;;;;;6.33;2.63;;;16.30;99.90;;;;;;5037472;28;20443;-44
2021/08/17 08:35:38;;;;;;;12.43;3.00;;;16.20;99.90;;;;;;5037299;28;20444;-43
2021/08/17 08:38:06;;;;;;;5.43;2.57;;;16.10;99.90;;;;;;5036787;28;20440;-43
2021/08/17 08:40:33;;;;;;;6.50;2.90;;;16.10;99.90;;;;;;5037136;28;20440;-44
2021/08/17 08:43:00;;;;;;;3.33;2.23;;;16.20;99.90;;;;;;5036097;28;20456;-44
2021/08/17 08:45:28;;;;;;;8.83;3.07;;;16.20;99.90;;;;;;5016836;28;20441;-44
2021/08/17 08:47:55;;;;;;;5.87;2.20;;;16.20;99.90;;;;;;5017253;28;20455;-42
2021/08/17 08:50:21;;;;;;;7.90;2.50;;;16.20;99.90;;;;;;5017044;28;20492;-43
2021/08/17 08:52:48;;;;;;;5.07;2.63;;;16.20;99.90;;;;;;5017489;28;20452;-41
2021/08/17 08:55:15;;;;;;;6.73;2.80;;;16.20;99.90;;;;;;5016958;28;20460;-44
2021/08/17 08:57:42;;;;;;;7.80;2.97;;;16.30;99.90;;;;;;5016551;28;20457;-46
2021/08/17 09:00:10;;;;;;;4.43;2.57;;;16.40;99.90;;;;;;5016976;28;20441;-41
2021/08/17 09:02:39;;;;;;;5.77;2.70;;;16.40;99.90;;;;;;5017217;28;20445;-43
2021/08/17 09:05:06;;;;;;;3.67;2.90;;;16.40;99.90;;;;;;5017010;28;20771;-44
2021/08/17 09:07:38;;;;;;;6.33;2.90;;;16.30;99.90;;;;;;5017280;28;20461;-43
2021/08/17 09:10:07;;;;;;;5.37;2.23;;;16.30;99.90;;;;;;5016648;28;20600;-46
2021/08/17 09:12:35;;;;;;;6.83;2.60;;;16.30;99.90;;;;;;5016300;28;20515;-44
2021/08/17 09:15:07;;;;;;;6.97;2.77;;;16.20;99.90;;;;;;5016919;28;20460;-46
2021/08/17 09:17:34;;;;;;;3.30;2.67;;;16.20;99.90;;;;;;5016292;28;20467;-48
2021/08/17 09:20:02;;;;;;;6.63;2.83;;;16.40;99.90;;;;;;5015980;28;20483;-47
2021/08/17 09:22:29;;;;;;;8.40;3.10;;;16.40;99.90;;;;;;5016057;28;20449;-45
2021/08/17 09:24:57;;;;;;;7.53;3.07;;;16.40;99.90;;;;;;5016309;28;20460;-45
2021/08/17 09:27:26;;;;;;;7.40;3.30;;;16.40;99.90;;;;;;5016237;28;20464;-51
2021/08/17 09:30:08;;;;;;;6.93;3.30;;;16.50;99.90;;;;;;5015939;28;20485;-47
2021/08/17 09:32:50;;;;;;;5.10;3.33;;;16.50;99.90;;;;;;5016412;28;20449;-46
2021/08/17 09:35:20;;;;;;;5.07;3.07;;;16.50;99.90;;;;;;5015844;28;20793;-44
2021/08/17 09:38:05;;;;;;;7.10;2.83;;;16.50;99.90;;;;;;5015680;28;20476;-44
2021/08/17 09:40:32;;;;;;;7.90;2.93;;;16.70;99.90;;;;;;5016379;28;20433;-45
2021/08/17 09:43:12;;;;;;;10.07;5.03;;;16.80;99.90;;;;;;5019935;28;20449;-41
2021/08/17 09:45:39;;;;;;;6.23;3.27;;;16.70;99.90;;;;;;5020173;28;20421;-43
2021/08/17 09:48:06;;;;;;;9.23;3.90;;;16.80;99.90;;;;;;5020231;28;20445;-45
2021/08/17 09:50:37;;;;;;;10.43;5.63;;;16.70;99.90;;;;;;5019742;28;20485;-48
2021/08/17 09:53:10;;;;;;;12.43;3.70;;;16.70;99.90;;;;;;5020171;28;20499;-46
2021/08/17 09:55:49;;;;;;;4.80;3.03;;;16.70;99.90;;;;;;5019938;28;20472;-47
2021/08/17 09:58:24;;;;;;;7.73;3.60;;;16.70;99.90;;;;;;5020171;28;20514;-44
2021/08/17 10:00:53;;;;;;;8.13;3.60;;;16.70;99.90;;;;;;5019905;28;20448;-44
2021/08/17 10:03:21;;;;;;;5.87;2.57;;;16.70;99.90;;;;;;5019798;28;20521;-46
2021/08/17 10:05:50;;;;;;;7.60;3.20;;;16.80;99.90;;;;;;5019288;28;20932;-48
2021/08/17 10:08:18;;;;;;;8.50;3.10;;;16.80;99.90;;;;;;5019867;28;21036;-46
2021/08/17 10:10:46;;;;;;;6.83;3.20;;;16.70;99.90;;;;;;5019884;28;20507;-45
2021/08/17 10:13:14;;;;;;;6.80;3.30;;;16.60;99.90;;;;;;5020766;28;20449;-48
2021/08/17 10:15:43;;;;;;;9.10;3.70;;;16.60;99.90;;;;;;5020214;28;20449;-43
2021/08/17 10:18:11;;;;;;;11.03;3.67;;;16.70;99.90;;;;;;5020018;28;20785;-43
2021/08/17 10:20:39;;;;;;;9.50;3.40;;;16.80;99.90;;;;;;5019386;28;20469;-42
2021/08/17 10:23:09;;;;;;;5.83;3.50;;;16.90;99.90;;;;;;5019389;28;20644;-43
2021/08/17 10:25:47;;;;;;;5.50;3.27;;;17.00;99.90;;;;;;5019234;28;20507;-42
2021/08/17 10:28:33;;;;;;;4.37;3.00;;;17.20;99.90;;;;;;5011518;28;20461;-46
2021/08/17 10:31:27;;;;;;;13.60;8.93;;;17.20;99.90;;;;;;5018656;28;20484;-44
2021/08/17 10:34:05;;;;;;;7.13;4.07;;;17.50;99.90;;;;;;5018947;28;20449;-42
2021/08/17 10:36:34;;;;;;;7.10;2.73;;;17.80;99.90;;;;;;5018588;28;20496;-43
2021/08/17 10:39:04;;;;;;;7.70;3.57;;;18.10;99.90;;;;;;5019042;28;20453;-43
2021/08/17 10:41:34;;;;;;;8.67;2.80;;;18.40;99.90;;;;;;5018700;28;20499;-43
2021/08/17 10:44:20;;;;;;;10.60;5.30;;;18.40;99.90;;;;;;5035320;28;20488;-42
2021/08/17 10:46:59;;;;;;;5.30;2.33;;;18.40;99.90;;;;;;5058279;28;20492;-42
2021/08/17 10:49:46;;;;;;;5.80;3.30;;;18.20;99.90;;;;;;5058128;28;20458;-47
2021/08/17 10:52:34;;;;;;;9.10;3.27;;;18.10;99.90;;;;;;5057550;28;20439;-43
2021/08/17 10:55:25;;;;;;;7.07;2.13;;;17.80;99.90;;;;;;5057958;28;20447;-41
2021/08/17 10:57:54;;;;;;;5.63;2.30;;;17.70;99.90;;;;;;5058846;28;20526;-47
2021/08/17 11:00:53;;;;;;;4.27;2.43;;;17.60;99.90;;;;;;5058418;28;20451;-47
2021/08/17 11:03:43;;;;;;;9.20;2.77;;;17.40;99.90;;;;;;5058847;28;20427;-43
2021/08/17 11:06:10;;;;;;;10.50;2.57;;;17.20;99.90;;;;;;5058447;28;20513;-43
2021/08/17 11:08:39;;;;;;;5.43;2.40;;;17.10;99.90;;;;;;5058900;28;20899;-42
2021/08/17 11:11:19;;;;;;;5.23;2.73;;;17.10;99.90;;;;;;5057739;28;20798;-49
2021/08/17 11:14:06;;;;;;;6.37;2.43;;;17.40;99.90;;;;;;5058179;28;20500;-44
2021/08/17 11:16:33;;;;;;;8.90;2.47;;;17.80;99.90;;;;;;5058296;28;20442;-42
2021/08/17 11:19:06;;;;;;;7.10;4.00;;;18.00;99.90;;;;;;5058137;28;20952;-46
2021/08/17 11:21:36;;;;;;;9.33;2.67;;;18.10;99.90;;;;;;5056976;28;20983;-47
2021/08/17 11:24:07;;;;;;;4.53;1.70;;;17.80;99.90;;;;;;5057541;28;20443;-49
2021/08/17 11:26:36;;;;;;;5.23;2.57;;;17.70;99.90;;;;;;5057234;28;20459;-46
2021/08/17 11:29:03;;;;;;;6.57;3.87;;;17.50;99.90;;;;;;5056945;28;20908;-50
2021/08/17 11:31:30;;;;;;;7.53;2.60;;;17.10;99.90;;;;;;5056932;28;20491;-48
2021/08/17 11:34:13;;;;;;;12.17;5.60;;;16.80;99.90;;;;;;5057244;28;20458;-47
2021/08/17 11:36:40;;;;;;;7.20;2.90;;;16.40;99.90;;;;;;5057633;28;20463;-45
2021/08/17 11:39:20;;;;;;;7.40;2.60;;;16.10;99.90;;;;;;5057666;28;20939;-48
2021/08/17 11:41:49;;;;;;;7.57;3.80;;;15.90;99.90;;;;;;5057858;28;20438;-50
2021/08/17 11:44:16;;;;;;;7.83;3.43;;;15.80;99.90;;;;;;5057151;28;20471;-51
2021/08/17 11:46:43;;;;;;;6.37;3.90;;;15.90;99.90;;;;;;5057700;28;20447;-52
2021/08/17 11:49:24;;;;;;;6.80;4.10;;;16.00;99.90;;;;;;5056331;28;20454;-49
2021/08/17 11:52:10;;;;;;;10.37;3.00;;;16.40;99.90;;;;;;5056360;28;20534;-48
2021/08/17 11:54:47;;;;;;;10.70;3.23;;;16.80;99.90;;;;;;5055735;28;20459;-51
2021/08/17 11:57:19;;;;;;;12.13;3.53;;;17.20;99.90;;;;;;5055907;28;20438;-50
2021/08/17 11:59:47;;;;;;;5.90;3.43;;;17.60;99.90;;;;;;5055752;28;20443;-51
2021/08/17 12:02:20;;;;;;;10.07;3.00;;;17.90;99.90;;;;;;5055831;28;20464;-48
2021/08/17 12:04:52;;;;;;;5.83;2.87;;;18.00;99.90;;;;;;5055207;28;20439;-55
2021/08/17 12:07:19;;;;;;;4.33;2.93;;;17.90;99.90;;;;;;5055726;28;20435;-52
2021/08/17 12:09:47;;;;;;;8.90;4.10;;;17.80;99.90;;;;;;5055626;28;20455;-51
2021/08/17 12:12:17;;;;;;;3.93;2.77;;;17.90;99.90;;;;;;5055636;28;20509;-48
2021/08/17 12:14:45;;;;;;;10.23;3.10;;;17.90;99.90;;;;;;5055773;28;20511;-52
2021/08/17 12:17:20;;;;;;;5.67;2.47;;;17.80;99.90;;;;;;5056271;28;20851;-48
2021/08/17 12:19:49;;;;;;;5.70;2.93;;;17.80;99.90;;;;;;5056270;28;20439;-50
2021/08/17 12:22:27;;;;;;;13.63;3.60;;;18.00;99.90;;;;;;5055232;28;20538;-47
2021/08/17 12:24:56;;;;;;;15.37;3.00;;;18.30;99.90;;;;;;5055086;28;20466;-50
2021/08/17 12:27:27;;;;;;;8.70;3.67;;;18.30;99.90;;;;;;5055384;28;20509;-50
2021/08/17 12:29:54;;;;;;;4.63;2.40;;;18.30;99.90;;;;;;5055308;28;20451;-47
2021/08/17 12:32:25;;;;;;;9.80;2.97;;;18.30;99.90;;;;;;5055136;28;20475;-47
2021/08/17 12:34:53;;;;;;;11.63;2.90;;;18.10;99.90;;;;;;5055456;28;20509;-49
2021/08/17 12:37:28;;;;;;;8.93;2.80;;;18.00;99.90;;;;;;5055102;28;20892;-44
2021/08/17 12:39:56;;;;;;;8.23;3.40;;;18.00;99.90;;;;;;5055271;28;20783;-47
2021/08/17 12:42:24;;;;;;;8.07;3.00;;;18.00;99.90;;;;;;5055136;28;20491;-47
2021/08/17 12:44:52;;;;;;;7.73;4.00;;;18.00;99.90;;;;;;5056022;28;20533;-48
2021/08/17 12:47:20;;;;;;;5.70;2.73;;;17.90;99.90;;;;;;5056652;28;20439;-46
2021/08/17 12:49:49;;;;;;;10.33;3.10;;;17.90;99.90;;;;;;5056935;28;20465;-46
2021/08/17 12:52:40;;;;;;;11.67;2.67;;;17.90;99.90;;;;;;5056599;28;20537;-50
2021/08/17 12:55:10;;;;;;;12.20;3.23;;;18.00;99.90;;;;;;5055106;28;20450;-47
2021/08/17 12:57:41;;;;;;;9.80;3.20;;;17.90;99.90;;;;;;5054894;28;20815;-50
2021/08/17 13:00:11;;;;;;;6.13;2.77;;;18.00;99.90;;;;;;5054978;28;20456;-49
2021/08/17 13:02:38;;;;;;;6.10;2.77;;;18.20;99.90;;;;;;5054828;28;20482;-51
2021/08/17 13:05:06;;;;;;;5.10;2.77;;;18.30;99.90;;;;;;5054726;28;20439;-52